createdAt,value
2017-09-14T00:00:57.311Z,63.64
2017-09-14T00:03:23.744Z,63.78
2017-09-14T00:05:50.179Z,63.83
2017-09-14T00:08:16.612Z,64.49
2017-09-14T00:10:43.004Z,65.09
2017-09-14T00:13:10.202Z,65.41
2017-09-14T00:15:36.590Z,65.71
2017-09-14T00:18:03.019Z,65.55
2017-09-14T00:20:29.511Z,65.73
2017-09-14T00:22:55.939Z,65.86
2017-09-14T00:25:22.374Z,65.76
2017-09-14T00:27:48.759Z,65.77
2017-09-14T00:30:16.063Z,65.90
2017-09-14T00:32:42.451Z,65.81
2017-09-14T00:35:08.922Z,65.69
2017-09-14T00:37:35.368Z,65.75
2017-09-14T00:40:01.804Z,65.84
2017-09-14T00:42:28.237Z,65.68
2017-09-14T00:44:54.673Z,65.81
2017-09-14T00:47:21.824Z,65.34
2017-09-14T00:49:48.262Z,65.60
2017-09-14T00:52:14.694Z,65.90
2017-09-14T00:54:41.129Z,66.09
2017-09-14T00:57:07.564Z,66.41
2017-09-14T00:59:34.101Z,65.68
2017-09-14T01:02:00.537Z,65.60
2017-09-14T01:04:27.711Z,66.02
2017-09-14T01:06:54.125Z,66.90
2017-09-14T01:09:20.558Z,67.55
2017-09-14T01:11:46.992Z,68.01
2017-09-14T01:14:13.376Z,68.01
2017-09-14T01:16:39.847Z,67.56
2017-09-14T01:19:06.247Z,67.16
2017-09-14T01:21:33.434Z,66.88
2017-09-14T01:23:59.884Z,66.82
2017-09-14T01:26:26.267Z,67.38
2017-09-14T01:28:52.754Z,67.96
2017-09-14T01:31:19.192Z,68.17
2017-09-14T01:33:45.623Z,67.98
2017-09-14T01:36:12.008Z,68.22
2017-09-14T01:38:39.210Z,68.53
2017-09-14T01:41:05.645Z,68.36
2017-09-14T01:43:32.080Z,67.75
2017-09-14T01:45:58.515Z,67.40
2017-09-14T01:48:24.950Z,67.72
2017-09-14T01:50:51.387Z,68.02
2017-09-14T01:53:17.820Z,67.71
2017-09-14T01:55:45.074Z,67.55
2017-09-14T01:58:11.494Z,67.29
2017-09-14T02:00:37.944Z,67.31
2017-09-14T02:03:04.379Z,67.29
2017-09-14T02:05:30.836Z,67.30
2017-09-14T02:07:57.249Z,67.79
2017-09-14T02:10:23.637Z,68.35
2017-09-14T02:12:50.835Z,68.16
2017-09-14T02:15:17.269Z,68.22
2017-09-14T02:17:43.729Z,68.12
2017-09-14T02:20:10.094Z,68.41
2017-09-14T02:22:36.575Z,68.54
2017-09-14T02:25:03.010Z,68.38
2017-09-14T02:27:29.395Z,68.27
2017-09-14T02:32:22.929Z,69.05
2017-09-14T02:34:49.363Z,69.93
2017-09-14T02:37:15.902Z,70.32
2017-09-14T02:39:42.336Z,69.67
2017-09-14T02:42:08.771Z,68.94
2017-09-14T02:44:35.206Z,68.82
2017-09-14T02:47:02.367Z,69.27
2017-09-14T02:49:28.844Z,69.07
2017-09-14T02:51:55.278Z,68.94
2017-09-14T02:54:21.752Z,69.25
2017-09-14T02:56:48.201Z,68.91
2017-09-14T02:59:14.655Z,68.77
2017-09-14T03:01:41.150Z,68.13
2017-09-14T03:04:08.268Z,68.17
2017-09-14T03:06:34.757Z,68.24
2017-09-14T03:09:01.193Z,68.18
2017-09-14T03:11:27.629Z,68.65
2017-09-14T03:13:54.063Z,68.44
2017-09-14T03:16:20.447Z,68.07
2017-09-14T03:18:46.935Z,68.02
2017-09-14T03:21:14.086Z,68.22
2017-09-14T03:23:40.469Z,68.69
2017-09-14T03:26:06.953Z,68.78
2017-09-14T03:28:33.492Z,68.67
2017-09-14T03:30:59.927Z,68.57
2017-09-14T03:33:26.361Z,68.70
2017-09-14T03:35:52.749Z,68.85
2017-09-14T03:38:19.914Z,69.58
2017-09-14T03:40:46.356Z,69.99
2017-09-14T03:43:12.820Z,69.91
2017-09-14T03:45:39.271Z,70.57
2017-09-14T03:48:05.688Z,70.91
2017-09-14T03:50:32.121Z,70.99
2017-09-14T03:52:58.558Z,71.00
2017-09-14T03:55:25.727Z,70.57
2017-09-14T03:57:52.246Z,70.44
2017-09-14T04:00:18.682Z,69.60
2017-09-14T04:02:45.116Z,69.49
2017-09-14T04:05:11.551Z,69.40
2017-09-14T04:07:37.986Z,69.95
2017-09-14T04:10:04.371Z,70.72
2017-09-14T04:12:31.675Z,71.14
2017-09-14T04:14:58.110Z,70.45
2017-09-14T04:17:24.647Z,69.76
2017-09-14T04:19:51.084Z,69.72
2017-09-14T04:22:17.517Z,69.28
2017-09-14T04:24:43.952Z,69.16
2017-09-14T04:27:10.386Z,68.99
2017-09-14T04:29:37.643Z,69.12
2017-09-14T04:32:04.077Z,69.36
2017-09-14T04:34:30.463Z,68.91
2017-09-14T04:36:57.050Z,68.82
2017-09-14T04:39:23.482Z,68.94
2017-09-14T04:41:49.920Z,68.68
2017-09-14T04:44:16.354Z,68.70
2017-09-14T04:46:43.610Z,68.94
2017-09-14T04:49:10.044Z,68.87
2017-09-14T04:51:36.423Z,68.83
2017-09-14T04:54:02.808Z,68.68
2017-09-14T04:56:29.243Z,68.16
2017-09-14T04:58:55.681Z,67.88
2017-09-14T05:01:22.114Z,67.60
2017-09-14T05:03:49.352Z,67.23
2017-09-14T05:06:15.805Z,66.79
2017-09-14T05:08:42.236Z,66.47
2017-09-14T05:11:08.654Z,66.22
2017-09-14T05:13:35.100Z,65.81
2017-09-14T05:16:01.548Z,65.76
2017-09-14T05:18:27.977Z,65.09
2017-09-14T05:20:55.129Z,64.79
2017-09-14T05:23:21.564Z,64.82
2017-09-14T05:25:47.999Z,64.48
2017-09-14T05:28:14.377Z,64.24
2017-09-14T05:30:40.873Z,64.09
2017-09-14T05:33:07.252Z,63.95
2017-09-14T05:35:33.730Z,63.59
2017-09-14T05:38:00.891Z,63.35
2017-09-14T05:40:27.327Z,62.88
2017-09-14T05:42:53.760Z,62.59
2017-09-14T05:45:20.298Z,62.38
2017-09-14T05:47:46.732Z,62.17
2017-09-14T05:50:13.167Z,62.23
2017-09-14T05:52:39.601Z,62.34
2017-09-14T05:55:05.982Z,61.95
2017-09-14T05:57:32.676Z,61.48
2017-09-14T05:59:59.035Z,61.17
2017-09-14T06:02:25.444Z,60.92
2017-09-14T06:04:52.070Z,60.54
2017-09-14T06:07:18.620Z,60.08
2017-09-14T06:09:45.077Z,59.76
2017-09-14T06:12:11.592Z,59.48
2017-09-14T06:14:38.048Z,59.33
2017-09-14T06:17:04.411Z,59.13
2017-09-14T06:19:30.973Z,58.69
2017-09-14T06:21:57.415Z,58.63
2017-09-14T06:24:24.284Z,58.46
2017-09-14T06:26:50.715Z,58.23
2017-09-14T06:29:17.150Z,58.32
2017-09-14T06:31:43.586Z,58.55
2017-09-14T06:34:10.019Z,58.39
2017-09-14T06:36:36.965Z,58.18
2017-09-14T06:39:03.350Z,57.40
2017-09-14T06:41:30.246Z,56.96
2017-09-14T06:43:56.681Z,56.54
2017-09-14T06:46:23.166Z,55.96
2017-09-14T06:48:49.635Z,55.46
2017-09-14T06:51:16.304Z,55.14
2017-09-14T06:53:42.726Z,55.09
2017-09-14T06:56:09.166Z,54.32
2017-09-14T06:58:36.443Z,54.46
2017-09-14T07:01:02.955Z,54.31
2017-09-14T07:03:29.389Z,54.03
2017-09-14T07:05:56.028Z,53.33
2017-09-14T07:08:22.527Z,53.09
2017-09-14T07:13:30.213Z,52.59
2017-09-14T07:26:02.648Z,50.81
2017-09-14T07:28:29.086Z,50.59
2017-09-14T07:30:55.520Z,50.41
2017-09-14T07:33:21.826Z,50.10
2017-09-14T07:35:48.259Z,50.10
2017-09-14T07:38:14.823Z,50.18
2017-09-14T07:40:41.359Z,49.98
2017-09-14T07:43:07.795Z,49.50
2017-09-14T07:45:34.186Z,48.97
2017-09-14T07:48:00.670Z,48.48
2017-09-14T07:50:27.121Z,48.35
2017-09-14T07:52:53.558Z,48.20
2017-09-14T07:55:20.072Z,48.17
2017-09-14T07:57:46.612Z,47.79
2017-09-14T08:00:12.944Z,47.40
2017-09-14T08:02:39.376Z,47.27
2017-09-14T08:05:06.054Z,45.95
2017-09-14T08:07:32.399Z,45.43
2017-09-14T08:09:58.889Z,44.55
2017-09-14T08:12:25.941Z,44.13
2017-09-14T08:14:52.372Z,44.09
2017-09-14T08:17:18.805Z,43.26
2017-09-14T08:19:45.240Z,42.34
2017-09-14T08:22:11.614Z,42.10
2017-09-14T08:24:38.099Z,41.80
2017-09-14T08:27:04.753Z,41.74
2017-09-14T08:29:31.185Z,40.94
2017-09-14T08:31:57.560Z,40.66
2017-09-14T08:34:24.054Z,40.70
2017-09-14T08:36:50.490Z,40.33
2017-09-14T08:39:16.924Z,39.87
2017-09-14T08:41:43.360Z,39.69
2017-09-14T08:44:09.793Z,39.26
2017-09-14T08:46:36.230Z,39.18
2017-09-14T08:49:02.869Z,39.05
2017-09-14T08:51:29.239Z,38.83
2017-09-14T08:53:56.864Z,38.92
2017-09-14T08:56:23.403Z,38.93
2017-09-14T08:58:49.939Z,39.06
2017-09-14T09:01:16.375Z,38.59
2017-09-14T09:06:14.985Z,38.05
2017-09-14T09:08:41.536Z,37.93
2017-09-14T09:11:08.074Z,37.09
2017-09-14T09:13:34.510Z,37.00
2017-09-14T09:16:01.047Z,36.97
2017-09-14T09:18:27.426Z,36.75
2017-09-14T09:20:53.914Z,36.74
2017-09-14T09:23:20.348Z,36.25
2017-09-14T09:25:46.897Z,36.32
2017-09-14T09:28:13.628Z,36.59
2017-09-14T09:30:40.083Z,35.87
2017-09-14T09:33:06.909Z,35.64
2017-09-14T09:35:33.751Z,35.82
2017-09-14T09:38:00.195Z,35.96
2017-09-14T09:40:26.934Z,35.39
2017-09-14T09:42:53.574Z,35.87
2017-09-14T09:45:20.105Z,36.46
2017-09-14T09:47:46.490Z,36.47
2017-09-14T09:50:12.955Z,37.04
2017-09-14T09:52:39.410Z,36.35
2017-09-14T09:55:05.845Z,36.96
2017-09-14T09:57:32.279Z,37.13
2017-09-14T09:59:58.631Z,37.25
2017-09-14T10:02:25.048Z,37.73
2017-09-14T10:04:51.482Z,37.12
2017-09-14T10:07:17.917Z,36.74
2017-09-14T10:09:44.351Z,35.52
2017-09-14T10:12:10.787Z,35.81
2017-09-14T10:14:37.426Z,35.94
2017-09-14T10:17:03.812Z,36.21
2017-09-14T10:19:30.297Z,36.62
2017-09-14T10:21:56.733Z,35.70
2017-09-14T10:24:23.167Z,35.74
2017-09-14T10:26:49.706Z,35.82
2017-09-14T10:29:16.342Z,36.41
2017-09-14T10:31:42.925Z,36.25
2017-09-14T10:34:09.279Z,36.16
2017-09-14T10:36:35.646Z,36.34
2017-09-14T10:39:02.389Z,35.38
2017-09-14T10:41:28.928Z,35.10
2017-09-14T10:43:55.367Z,34.63
2017-09-14T10:46:22.308Z,34.66
2017-09-14T10:48:48.744Z,35.31
2017-09-14T10:51:15.179Z,34.95
2017-09-14T10:53:41.614Z,34.52
2017-09-14T10:56:08.150Z,34.34
2017-09-14T10:58:34.530Z,34.45
2017-09-14T11:01:01.118Z,34.32
2017-09-14T11:03:27.581Z,34.57
2017-09-14T11:05:54.299Z,34.72
2017-09-14T11:08:20.882Z,34.63
2017-09-14T11:10:48.229Z,34.34
2017-09-14T11:15:46.670Z,32.95
2017-09-14T11:18:13.144Z,32.58
2017-09-14T11:20:39.677Z,31.99
2017-09-14T11:23:06.590Z,31.19
2017-09-14T11:25:33.331Z,30.48
2017-09-14T11:27:59.755Z,29.59
2017-09-14T11:30:26.225Z,28.91
2017-09-14T11:32:53.762Z,28.28
2017-09-14T11:35:20.242Z,27.45
2017-09-14T11:37:46.840Z,26.68
2017-09-14T11:40:13.477Z,26.33
2017-09-14T11:42:39.924Z,25.87
2017-09-14T11:45:06.450Z,25.61
2017-09-14T11:47:32.986Z,25.49
2017-09-14T11:49:59.525Z,24.42
2017-09-14T11:52:26.070Z,24.11
2017-09-14T11:54:52.702Z,24.32
2017-09-14T11:57:19.240Z,24.17
2017-09-14T11:59:45.879Z,24.06
2017-09-14T12:02:12.415Z,23.46
2017-09-14T12:04:38.748Z,23.18
2017-09-14T12:07:05.182Z,22.87
2017-09-14T12:09:32.152Z,22.73
2017-09-14T12:11:58.618Z,22.25
2017-09-14T12:14:25.036Z,21.75
2017-09-14T12:16:51.536Z,21.65
2017-09-14T12:19:17.979Z,20.71
2017-09-14T12:21:44.453Z,20.65
2017-09-14T12:24:11.046Z,21.28
2017-09-14T12:26:37.434Z,21.08
2017-09-14T12:29:04.021Z,20.74
2017-09-14T12:31:30.763Z,20.38
2017-09-14T12:33:57.646Z,20.66
2017-09-14T12:36:24.039Z,20.07
2017-09-14T12:38:50.487Z,19.54
2017-09-14T12:41:17.014Z,19.44
2017-09-14T12:43:43.864Z,19.37
2017-09-14T12:46:10.600Z,19.31
2017-09-14T12:48:38.546Z,19.01
2017-09-14T12:51:05.075Z,18.36
2017-09-14T12:53:31.478Z,18.53
2017-09-14T12:55:58.489Z,19.61
2017-09-14T12:58:25.131Z,19.89
2017-09-14T13:00:51.608Z,19.59
2017-09-14T13:03:18.320Z,20.29
2017-09-14T13:05:45.153Z,20.21
2017-09-14T13:08:13.231Z,19.82
2017-09-14T13:10:39.697Z,19.87
2017-09-14T13:13:06.027Z,19.48
2017-09-14T13:15:32.608Z,19.42
2017-09-14T13:17:59.607Z,19.00
2017-09-14T13:20:26.013Z,18.72
2017-09-14T13:22:52.672Z,18.58
2017-09-14T13:25:19.142Z,18.13
2017-09-14T13:27:45.561Z,18.46
2017-09-14T13:42:49.621Z,18.45
2017-09-14T13:55:21.922Z,19.52
2017-09-14T13:57:48.357Z,19.05
2017-09-14T14:00:14.816Z,19.08
2017-09-14T14:02:41.943Z,19.09
2017-09-14T14:05:08.322Z,19.09
2017-09-14T14:07:35.634Z,18.51
2017-09-14T14:10:02.171Z,18.61
2017-09-14T14:12:28.605Z,18.71
2017-09-14T14:14:55.040Z,19.02
2017-09-14T14:17:21.393Z,19.30
2017-09-14T14:19:47.806Z,20.40
2017-09-14T14:22:14.246Z,21.36
2017-09-14T14:24:40.676Z,22.37
2017-09-14T14:29:39.998Z,24.48
2017-09-14T14:32:06.536Z,25.11
2017-09-14T14:34:33.195Z,26.26
2017-09-14T14:36:59.588Z,27.21
2017-09-14T14:39:26.091Z,27.55
2017-09-14T14:41:52.710Z,28.04
2017-09-14T14:44:19.292Z,28.81
2017-09-14T14:46:45.657Z,29.12
2017-09-14T14:49:12.102Z,29.24
2017-09-14T14:51:38.594Z,29.64
2017-09-14T14:54:05.385Z,30.05
2017-09-14T14:56:32.386Z,30.12
2017-09-14T14:58:58.958Z,30.37
2017-09-14T15:01:25.394Z,30.44
2017-09-14T15:03:51.931Z,30.51
2017-09-14T15:06:18.468Z,30.99
2017-09-14T15:08:44.902Z,31.24
2017-09-14T15:11:11.294Z,31.16
2017-09-14T15:13:37.772Z,31.31
2017-09-14T15:16:04.150Z,31.51
2017-09-14T15:18:30.642Z,31.54
2017-09-14T15:20:57.077Z,31.38
2017-09-14T15:23:23.615Z,31.57
2017-09-14T15:25:50.152Z,31.40
2017-09-14T15:28:17.303Z,31.72
2017-09-14T15:30:43.785Z,31.89
2017-09-14T15:33:10.256Z,32.13
2017-09-14T15:35:36.758Z,32.34
2017-09-14T15:38:03.241Z,32.58
2017-09-14T15:40:29.662Z,32.97
2017-09-14T15:42:56.117Z,33.11
2017-09-14T15:45:23.214Z,33.31
2017-09-14T15:47:49.602Z,33.71
2017-09-14T15:50:16.139Z,33.89
2017-09-14T15:52:42.678Z,34.11
2017-09-14T15:55:09.111Z,34.27
2017-09-14T15:57:35.548Z,34.42
2017-09-14T16:00:01.981Z,34.54
2017-09-14T16:02:29.236Z,34.80
2017-09-14T16:04:55.670Z,34.98
2017-09-14T16:07:22.106Z,34.95
2017-09-14T16:09:48.486Z,35.18
2017-09-14T16:12:14.923Z,35.31
2017-09-14T16:14:41.391Z,35.57
2017-09-14T16:17:07.844Z,35.62
2017-09-14T16:19:34.996Z,35.83
2017-09-14T16:22:01.436Z,36.06
2017-09-14T16:24:27.968Z,36.37
2017-09-14T16:26:54.402Z,36.17
2017-09-14T16:29:20.791Z,36.49
2017-09-14T16:31:47.134Z,36.85
2017-09-14T16:34:13.608Z,36.95
2017-09-14T16:36:40.758Z,37.07
2017-09-14T16:39:07.295Z,37.22
2017-09-14T16:41:33.711Z,37.39
2017-09-14T16:44:00.143Z,37.44
2017-09-14T16:46:26.601Z,37.37
2017-09-14T16:48:53.036Z,37.26
2017-09-14T16:51:19.414Z,37.49
2017-09-14T16:53:46.621Z,37.68
2017-09-14T16:56:13.055Z,37.79
2017-09-14T16:58:39.490Z,38.58
2017-09-14T17:01:05.928Z,38.74
2017-09-14T17:03:32.566Z,38.75
2017-09-14T17:05:58.999Z,39.03
2017-09-14T17:08:25.434Z,39.40
2017-09-14T17:10:52.484Z,39.73
2017-09-14T17:13:19.022Z,39.40
2017-09-14T17:15:45.475Z,40.19
2017-09-14T17:18:11.892Z,40.53
2017-09-14T17:20:38.327Z,41.33
2017-09-14T17:23:04.816Z,40.84
2017-09-14T17:25:31.196Z,41.25
2017-09-14T17:27:58.451Z,41.65
2017-09-14T17:30:24.886Z,41.93
2017-09-14T17:32:51.421Z,42.22
2017-09-14T17:35:17.861Z,42.58
2017-09-14T17:37:44.293Z,42.74
2017-09-14T17:40:10.790Z,43.16
2017-09-14T17:42:37.265Z,42.33
2017-09-14T17:45:04.416Z,43.12
2017-09-14T17:47:30.787Z,42.80
2017-09-14T17:49:57.145Z,42.87
2017-09-14T17:52:23.572Z,44.02
2017-09-14T17:54:50.053Z,43.26
2017-09-14T17:57:16.488Z,43.20
2017-09-14T17:59:42.923Z,43.47
2017-09-14T18:02:10.094Z,43.98
2017-09-14T18:04:36.598Z,44.45
2017-09-14T18:07:03.048Z,44.77
2017-09-14T18:09:29.404Z,45.38
2017-09-14T18:11:55.815Z,45.97
2017-09-14T18:14:22.398Z,46.22
2017-09-14T18:16:48.787Z,45.68
2017-09-14T18:19:15.928Z,45.96
2017-09-14T18:21:42.374Z,45.93
2017-09-14T18:24:08.911Z,46.39
2017-09-14T18:26:35.346Z,46.67
2017-09-14T18:29:01.782Z,47.23
2017-09-14T18:31:28.218Z,46.75
2017-09-14T18:33:54.709Z,46.98
2017-09-14T18:36:21.774Z,47.24
2017-09-14T18:38:48.221Z,48.12
2017-09-14T18:41:14.674Z,47.27
2017-09-14T18:43:41.209Z,48.25
2017-09-14T18:46:07.644Z,48.31
2017-09-14T18:48:34.079Z,48.10
2017-09-14T18:51:00.517Z,48.23
2017-09-14T18:53:27.666Z,48.29
2017-09-14T18:55:54.051Z,48.45
2017-09-14T18:58:20.536Z,48.54
2017-09-14T19:00:46.971Z,48.82
2017-09-14T19:03:13.407Z,48.28
2017-09-14T19:05:39.840Z,48.75
2017-09-14T19:08:06.262Z,48.71
2017-09-14T19:10:33.429Z,49.26
2017-09-14T19:12:59.966Z,49.60
2017-09-14T19:15:26.341Z,50.13
2017-09-14T19:17:52.787Z,49.32
2017-09-14T19:20:19.166Z,49.80
2017-09-14T19:22:45.704Z,50.43
2017-09-14T19:25:12.142Z,50.96
2017-09-14T19:27:39.380Z,51.09
2017-09-14T19:30:05.830Z,51.22
2017-09-14T19:32:32.264Z,50.93
2017-09-14T19:34:58.651Z,50.40
2017-09-14T19:37:25.099Z,50.61
2017-09-14T19:39:51.465Z,51.42
2017-09-14T19:42:17.886Z,51.59
2017-09-14T19:44:45.260Z,51.88
2017-09-14T19:47:11.691Z,52.19
2017-09-14T19:49:38.125Z,52.26
2017-09-14T19:52:04.561Z,52.74
2017-09-14T19:54:31.051Z,52.62
2017-09-14T19:56:57.449Z,53.43
2017-09-14T19:59:23.866Z,53.38
2017-09-14T20:01:51.121Z,53.18
2017-09-14T20:04:17.648Z,53.28
2017-09-14T20:06:44.048Z,53.71
2017-09-14T20:09:10.526Z,53.85
2017-09-14T20:11:36.961Z,54.22
2017-09-14T20:14:03.397Z,53.86
2017-09-14T20:16:29.857Z,54.27
2017-09-14T20:18:56.983Z,54.18
2017-09-14T20:21:23.420Z,54.58
2017-09-14T20:23:49.921Z,54.95
2017-09-14T20:26:16.393Z,55.50
2017-09-14T20:28:42.775Z,55.65
2017-09-14T20:31:09.157Z,55.68
2017-09-14T20:33:35.696Z,55.51
2017-09-14T20:36:02.799Z,55.20
2017-09-14T20:38:29.282Z,55.91
2017-09-14T20:40:55.716Z,55.84
2017-09-14T20:43:22.253Z,55.76
2017-09-14T20:45:48.700Z,55.46
2017-09-14T20:48:15.226Z,55.71
2017-09-14T20:50:41.660Z,55.82
2017-09-14T20:53:08.916Z,55.91
2017-09-14T20:55:35.453Z,56.17
2017-09-14T20:58:02.031Z,55.73
2017-09-14T21:00:28.527Z,55.52
2017-09-14T21:02:55.047Z,55.30
2017-09-14T21:05:21.499Z,55.51
2017-09-14T21:07:47.934Z,54.87
2017-09-14T21:10:15.025Z,54.42
2017-09-14T21:12:41.521Z,54.25
2017-09-14T21:15:07.956Z,53.80
2017-09-14T21:17:34.409Z,53.41
2017-09-14T21:20:00.928Z,52.74
2017-09-14T21:22:27.362Z,52.33
2017-09-14T21:24:53.751Z,52.41
2017-09-14T21:27:20.949Z,52.34
2017-09-14T21:29:47.384Z,52.13
2017-09-14T21:32:13.820Z,51.64
2017-09-14T21:34:40.354Z,51.32
2017-09-14T21:37:06.747Z,50.91
2017-09-14T21:39:33.213Z,50.67
2017-09-14T21:41:59.657Z,50.22
2017-09-14T21:44:26.765Z,49.97
2017-09-14T21:46:53.242Z,49.91
2017-09-14T21:49:19.634Z,49.68
2017-09-14T21:51:46.102Z,49.33
2017-09-14T21:54:12.656Z,49.29
2017-09-14T21:56:39.038Z,49.27
2017-09-14T21:59:05.422Z,49.22
2017-09-14T22:01:32.727Z,49.55
2017-09-14T22:03:59.214Z,49.57
2017-09-14T22:06:25.633Z,49.37
2017-09-14T22:08:52.076Z,49.23
2017-09-14T22:11:18.522Z,49.06
2017-09-14T22:13:45.061Z,49.35
2017-09-14T22:16:11.495Z,49.11
2017-09-14T22:18:38.746Z,48.99
2017-09-14T22:21:05.179Z,49.19
2017-09-14T22:23:31.717Z,49.13
2017-09-14T22:25:58.152Z,49.20
2017-09-14T22:28:24.690Z,49.39
2017-09-14T22:30:51.123Z,49.23
2017-09-14T22:33:18.686Z,49.29
2017-09-14T22:35:45.223Z,49.30
2017-09-14T22:38:11.658Z,49.54
2017-09-14T22:40:38.092Z,49.34
2017-09-14T22:43:04.631Z,49.32
2017-09-14T22:45:31.070Z,49.22
2017-09-14T22:47:57.500Z,48.65
2017-09-14T22:50:23.935Z,48.60
2017-09-14T22:52:51.188Z,48.10
2017-09-14T22:55:17.625Z,48.11
2017-09-14T22:57:44.006Z,48.26
2017-09-14T23:00:10.495Z,48.11
2017-09-14T23:02:37.030Z,48.14
2017-09-14T23:05:03.461Z,48.01
2017-09-14T23:07:29.870Z,48.28
2017-09-14T23:09:57.053Z,48.52
2017-09-14T23:12:23.487Z,48.48
2017-09-14T23:14:49.923Z,48.38
2017-09-14T23:17:16.301Z,48.55
2017-09-14T23:19:42.738Z,48.84
2017-09-14T23:22:09.227Z,48.57
2017-09-14T23:24:35.765Z,48.47
2017-09-14T23:27:02.936Z,48.72
2017-09-14T23:29:29.453Z,48.75
2017-09-14T23:31:55.887Z,48.82
2017-09-14T23:34:22.423Z,49.54
2017-09-14T23:36:48.816Z,49.76
2017-09-14T23:39:15.284Z,49.65
2017-09-14T23:41:41.730Z,49.67
2017-09-14T23:44:08.984Z,49.79
2017-09-14T23:46:35.418Z,49.86
2017-09-14T23:49:01.855Z,50.18
2017-09-14T23:51:28.310Z,50.88
2017-09-14T23:53:54.775Z,51.05
2017-09-14T23:56:21.232Z,51.09
2017-09-14T23:58:47.643Z,51.26
